Ampton, United Kingdom
Current Conditions -  °F | °C
As of 7:59 AM on Monday 24 Nov 2014 (Local Time) from EGUL Reporting Station
Haze Haze  
Wind Chill: 32°   Ceiling: Unl
Heat Index: 32°   Visibility: 3mi
Dew Point: 32°   Wind: 0mph
Humidity: 100%   Direction: NA
Pressure: 30.27"   Gusts: NA
Location:  52.33°N, 0.85°E
Report Text: EGUL 240759Z AUTO 00000KT 5000 BR CLR 00/00 A3027 RMK AO2
Loading
Personal Weather Stations






























Interactive Weather Map New forecast layout! Learn more

10-Day Weather Forecast

Advertisements
Track Severe Weather on mobile